sensor_id;sensor_type;location;lat;lon;timestamp;pressure;altitude;pressure_sealevel;temperature;humidity
23164;BME280;31429;42.674;23.350;2023-11-18T00:00:50;94030.78;;;7.11;100.00
23164;BME280;31429;42.674;23.350;2023-11-18T00:01:51;94027.84;;;7.22;100.00
23164;BME280;31429;42.674;23.350;2023-11-18T00:02:52;94036.84;;;7.07;100.00
23164;BME280;31429;42.674;23.350;2023-11-18T00:03:53;94026.63;;;7.09;100.00
23164;BME280;31429;42.674;23.350;2023-11-18T00:04:53;94023.41;;;6.80;100.00
23164;BME280;31429;42.674;23.350;2023-11-18T00:05:54;94024.91;;;6.86;100.00
23164;BME280;31429;42.674;23.350;2023-11-18T00:06:55;94027.13;;;6.95;100.00
23164;BME280;31429;42.674;23.350;2023-11-18T00:07:57;94037.34;;;6.93;100.00
23164;BME280;31429;42.674;23.350;2023-11-18T00:08:59;94041.59;;;6.93;100.00
23164;BME280;31429;42.674;23.350;2023-11-18T00:10:00;94032.88;;;7.23;100.00
23164;BME280;31429;42.674;23.350;2023-11-18T00:11:01;94032.66;;;7.06;100.00
23164;BME280;31429;42.674;23.350;2023-11-18T00:12:02;94032.69;;;7.05;100.00
23164;BME280;31429;42.674;23.350;2023-11-18T00:13:04;94024.81;;;7.12;100.00
23164;BME280;31429;42.674;23.350;2023-11-18T00:14:05;94029.41;;;7.03;100.00
23164;BME280;31429;42.674;23.350;2023-11-18T00:15:06;94031.50;;;6.91;100.00
23164;BME280;31429;42.674;23.350;2023-11-18T00:16:09;94035.06;;;6.86;100.00
23164;BME280;31429;42.674;23.350;2023-11-18T00:17:12;94035.53;;;6.97;100.00
23164;BME280;31429;42.674;23.350;2023-11-18T00:18:13;94040.44;;;7.02;100.00
23164;BME280;31429;42.674;23.350;2023-11-18T00:19:13;94054.19;;;6.96;100.00
23164;BME280;31429;42.674;23.350;2023-11-18T00:20:14;94050.91;;;6.92;100.00
23164;BME280;31429;42.674;23.350;2023-11-18T00:21:16;94064.88;;;7.06;100.00
23164;BME280;31429;42.674;23.350;2023-11-18T00:22:17;94072.50;;;7.06;100.00
23164;BME280;31429;42.674;23.350;2023-11-18T00:23:17;94079.59;;;6.96;100.00
23164;BME280;31429;42.674;23.350;2023-11-18T00:24:19;94082.19;;;6.94;100.00
23164;BME280;31429;42.674;23.350;2023-11-18T00:25:20;94077.13;;;6.94;100.00
23164;BME280;31429;42.674;23.350;2023-11-18T00:26:21;94086.03;;;6.81;100.00
23164;BME280;31429;42.674;23.350;2023-11-18T00:27:22;94066.50;;;6.83;100.00
23164;BME280;31429;42.674;23.350;2023-11-18T00:28:23;94063.34;;;6.77;100.00
23164;BME280;31429;42.674;23.350;2023-11-18T00:29:23;94064.31;;;6.73;100.00
23164;BME280;31429;42.674;23.350;2023-11-18T00:30:24;94054.31;;;6.68;100.00
23164;BME280;31429;42.674;23.350;2023-11-18T00:31:25;94027.28;;;6.90;100.00
23164;BME280;31429;42.674;23.350;2023-11-18T00:32:25;94037.28;;;6.72;100.00
23164;BME280;31429;42.674;23.350;2023-11-18T00:33:26;94031.28;;;6.73;100.00
23164;BME280;31429;42.674;23.350;2023-11-18T00:34:27;94032.13;;;6.73;100.00
23164;BME280;31429;42.674;23.350;2023-11-18T00:35:29;94034.41;;;6.81;100.00
23164;BME280;31429;42.674;23.350;2023-11-18T00:36:32;94038.91;;;6.98;100.00
23164;BME280;31429;42.674;23.350;2023-11-18T00:37:33;94052.66;;;6.67;100.00
23164;BME280;31429;42.674;23.350;2023-11-18T00:38:33;94055.81;;;6.74;100.00
23164;BME280;31429;42.674;23.350;2023-11-18T00:39:35;94053.09;;;6.78;100.00
23164;BME280;31429;42.674;23.350;2023-11-18T00:40:37;94047.38;;;6.49;100.00
23164;BME280;31429;42.674;23.350;2023-11-18T00:41:38;94037.13;;;6.52;100.00
23164;BME280;31429;42.674;23.350;2023-11-18T00:42:39;94039.75;;;6.73;100.00
23164;BME280;31429;42.674;23.350;2023-11-18T00:43:39;94036.81;;;6.84;100.00
23164;BME280;31429;42.674;23.350;2023-11-18T00:44:40;94042.56;;;6.66;100.00
23164;BME280;31429;42.674;23.350;2023-11-18T00:45:42;94046.53;;;6.73;100.00
23164;BME280;31429;42.674;23.350;2023-11-18T00:46:44;94044.09;;;6.94;100.00
23164;BME280;31429;42.674;23.350;2023-11-18T00:47:44;94052.44;;;6.73;100.00
23164;BME280;31429;42.674;23.350;2023-11-18T00:48:45;94042.75;;;6.84;100.00
23164;BME280;31429;42.674;23.350;2023-11-18T00:49:45;94043.00;;;6.77;100.00
23164;BME280;31429;42.674;23.350;2023-11-18T00:50:46;94043.31;;;6.68;100.00
23164;BME280;31429;42.674;23.350;2023-11-18T00:51:47;94049.66;;;6.81;100.00
23164;BME280;31429;42.674;23.350;2023-11-18T00:52:47;94047.69;;;6.89;100.00
23164;BME280;31429;42.674;23.350;2023-11-18T00:53:50;94045.44;;;6.80;100.00
23164;BME280;31429;42.674;23.350;2023-11-18T00:54:52;94046.63;;;6.70;100.00
23164;BME280;31429;42.674;23.350;2023-11-18T00:55:52;94054.97;;;6.73;100.00
23164;BME280;31429;42.674;23.350;2023-11-18T00:56:53;94062.03;;;6.65;100.00
23164;BME280;31429;42.674;23.350;2023-11-18T00:57:54;94060.59;;;6.58;100.00
23164;BME280;31429;42.674;23.350;2023-11-18T00:58:55;94050.66;;;6.52;100.00
23164;BME280;31429;42.674;23.350;2023-11-18T00:59:55;94052.25;;;6.55;100.00
23164;BME280;31429;42.674;23.350;2023-11-18T01:00:57;94045.00;;;6.44;100.00
23164;BME280;31429;42.674;23.350;2023-11-18T01:01:57;94053.41;;;6.45;100.00
23164;BME280;31429;42.674;23.350;2023-11-18T01:02:58;94049.19;;;6.45;100.00
23164;BME280;31429;42.674;23.350;2023-11-18T01:03:59;94044.38;;;6.62;100.00
23164;BME280;31429;42.674;23.350;2023-11-18T01:04:59;94058.97;;;6.31;100.00
23164;BME280;31429;42.674;23.350;2023-11-18T01:06:00;94056.56;;;6.53;100.00
23164;BME280;31429;42.674;23.350;2023-11-18T01:07:01;94052.16;;;6.58;100.00
23164;BME280;31429;42.674;23.350;2023-11-18T01:08:03;94063.25;;;6.55;100.00
23164;BME280;31429;42.674;23.350;2023-11-18T01:09:05;94059.09;;;6.53;100.00
23164;BME280;31429;42.674;23.350;2023-11-18T01:10:09;94060.81;;;6.52;100.00
23164;BME280;31429;42.674;23.350;2023-11-18T01:11:10;94062.03;;;6.41;100.00
23164;BME280;31429;42.674;23.350;2023-11-18T01:12:11;94060.06;;;6.49;100.00
23164;BME280;31429;42.674;23.350;2023-11-18T01:13:12;94047.84;;;6.60;100.00
23164;BME280;31429;42.674;23.350;2023-11-18T01:14:13;94062.13;;;6.62;100.00
23164;BME280;31429;42.674;23.350;2023-11-18T01:15:14;94068.16;;;6.35;100.00
23164;BME280;31429;42.674;23.350;2023-11-18T01:16:15;94061.56;;;6.54;100.00
23164;BME280;31429;42.674;23.350;2023-11-18T01:17:15;94068.53;;;6.49;100.00
23164;BME280;31429;42.674;23.350;2023-11-18T01:18:16;94060.88;;;6.75;100.00
23164;BME280;31429;42.674;23.350;2023-11-18T01:19:18;94081.31;;;6.71;100.00
23164;BME280;31429;42.674;23.350;2023-11-18T01:20:18;94083.31;;;6.61;100.00
23164;BME280;31429;42.674;23.350;2023-11-18T01:21:22;94093.81;;;6.52;100.00
23164;BME280;31429;42.674;23.350;2023-11-18T01:22:23;94085.94;;;6.33;100.00
23164;BME280;31429;42.674;23.350;2023-11-18T01:23:24;94091.81;;;6.35;100.00
23164;BME280;31429;42.674;23.350;2023-11-18T01:24:25;94086.75;;;6.35;100.00
23164;BME280;31429;42.674;23.350;2023-11-18T01:25:27;94086.19;;;6.52;100.00
23164;BME280;31429;42.674;23.350;2023-11-18T01:26:27;94080.91;;;6.58;100.00
23164;BME280;31429;42.674;23.350;2023-11-18T01:27:28;94084.22;;;6.60;100.00
23164;BME280;31429;42.674;23.350;2023-11-18T01:28:29;94078.69;;;6.49;100.00
23164;BME280;31429;42.674;23.350;2023-11-18T01:29:31;94088.84;;;6.49;100.00
23164;BME280;31429;42.674;23.350;2023-11-18T01:30:33;94083.22;;;6.40;100.00
23164;BME280;31429;42.674;23.350;2023-11-18T01:31:34;94076.88;;;6.26;100.00
23164;BME280;31429;42.674;23.350;2023-11-18T01:32:34;94066.03;;;6.48;100.00
23164;BME280;31429;42.674;23.350;2023-11-18T01:33:35;94062.97;;;6.63;100.00
23164;BME280;31429;42.674;23.350;2023-11-18T01:34:38;94077.56;;;6.56;100.00
23164;BME280;31429;42.674;23.350;2023-11-18T01:35:43;94074.44;;;6.50;100.00
23164;BME280;31429;42.674;23.350;2023-11-18T01:36:44;94080.03;;;6.33;100.00
23164;BME280;31429;42.674;23.350;2023-11-18T01:37:45;94070.69;;;6.35;100.00
23164;BME280;31429;42.674;23.350;2023-11-18T01:38:46;94072.97;;;6.16;100.00
23164;BME280;31429;42.674;23.350;2023-11-18T01:39:46;94080.75;;;6.38;100.00
23164;BME280;31429;42.674;23.350;2023-11-18T01:40:49;94083.38;;;6.35;100.00
23164;BME280;31429;42.674;23.350;2023-11-18T01:41:49;94069.56;;;6.44;100.00
23164;BME280;31429;42.674;23.350;2023-11-18T01:42:50;94059.69;;;6.59;100.00
23164;BME280;31429;42.674;23.350;2023-11-18T01:43:51;94071.19;;;6.45;100.00
23164;BME280;31429;42.674;23.350;2023-11-18T01:44:51;94076.06;;;6.26;100.00
23164;BME280;31429;42.674;23.350;2023-11-18T01:45:52;94070.59;;;6.12;100.00
23164;BME280;31429;42.674;23.350;2023-11-18T01:46:53;94083.19;;;6.15;100.00
23164;BME280;31429;42.674;23.350;2023-11-18T01:47:54;94080.44;;;5.95;100.00
23164;BME280;31429;42.674;23.350;2023-11-18T01:48:55;94070.31;;;6.21;100.00
23164;BME280;31429;42.674;23.350;2023-11-18T01:49:56;94070.25;;;6.22;100.00
23164;BME280;31429;42.674;23.350;2023-11-18T01:50:57;94080.25;;;6.01;100.00
23164;BME280;31429;42.674;23.350;2023-11-18T01:51:58;94076.41;;;6.15;100.00
23164;BME280;31429;42.674;23.350;2023-11-18T01:53:02;94076.03;;;6.00;100.00
23164;BME280;31429;42.674;23.350;2023-11-18T01:54:04;94076.47;;;5.86;100.00
23164;BME280;31429;42.674;23.350;2023-11-18T01:55:06;94076.69;;;6.06;100.00
23164;BME280;31429;42.674;23.350;2023-11-18T01:56:08;94070.94;;;6.01;100.00
23164;BME280;31429;42.674;23.350;2023-11-18T01:57:09;94076.59;;;6.09;100.00
23164;BME280;31429;42.674;23.350;2023-11-18T01:58:10;94074.06;;;6.09;100.00
23164;BME280;31429;42.674;23.350;2023-11-18T01:59:13;94070.41;;;6.18;100.00
23164;BME280;31429;42.674;23.350;2023-11-18T02:00:20;94060.00;;;6.50;100.00
23164;BME280;31429;42.674;23.350;2023-11-18T02:01:22;94060.25;;;6.44;100.00
23164;BME280;31429;42.674;23.350;2023-11-18T02:02:23;94069.59;;;6.16;100.00
23164;BME280;31429;42.674;23.350;2023-11-18T02:03:23;94075.91;;;6.04;100.00
23164;BME280;31429;42.674;23.350;2023-11-18T02:04:26;94070.47;;;5.89;100.00
23164;BME280;31429;42.674;23.350;2023-11-18T02:05:28;94080.34;;;5.98;100.00
23164;BME280;31429;42.674;23.350;2023-11-18T02:06:29;94081.84;;;6.03;100.00
23164;BME280;31429;42.674;23.350;2023-11-18T02:07:29;94060.00;;;6.25;100.00
23164;BME280;31429;42.674;23.350;2023-11-18T02:08:31;94076.16;;;6.23;100.00
23164;BME280;31429;42.674;23.350;2023-11-18T02:09:32;94087.66;;;6.07;100.00
23164;BME280;31429;42.674;23.350;2023-11-18T02:10:33;94079.22;;;6.06;100.00
23164;BME280;31429;42.674;23.350;2023-11-18T02:11:37;94068.06;;;6.12;100.00
23164;BME280;31429;42.674;23.350;2023-11-18T02:12:48;94075.81;;;6.07;100.00
23164;BME280;31429;42.674;23.350;2023-11-18T02:13:53;94081.88;;;6.02;100.00
23164;BME280;31429;42.674;23.350;2023-11-18T02:14:57;94080.44;;;5.95;100.00
23164;BME280;31429;42.674;23.350;2023-11-18T02:15:58;94077.13;;;5.93;100.00
23164;BME280;31429;42.674;23.350;2023-11-18T02:17:02;94078.31;;;5.79;100.00
23164;BME280;31429;42.674;23.350;2023-11-18T02:18:06;94070.03;;;5.74;100.00
23164;BME280;31429;42.674;23.350;2023-11-18T02:19:19;94081.72;;;5.51;100.00
23164;BME280;31429;42.674;23.350;2023-11-18T02:20:20;94090.06;;;5.56;100.00
23164;BME280;31429;42.674;23.350;2023-11-18T02:21:22;94079.53;;;5.68;100.00
23164;BME280;31429;42.674;23.350;2023-11-18T02:22:24;94083.94;;;5.91;100.00
23164;BME280;31429;42.674;23.350;2023-11-18T02:23:25;94090.59;;;5.95;100.00
23164;BME280;31429;42.674;23.350;2023-11-18T02:24:27;94092.16;;;5.99;100.00
23164;BME280;31429;42.674;23.350;2023-11-18T02:25:32;94103.00;;;5.74;100.00
23164;BME280;31429;42.674;23.350;2023-11-18T02:26:36;94114.09;;;5.70;100.00
23164;BME280;31429;42.674;23.350;2023-11-18T02:27:37;94092.00;;;5.75;100.00
23164;BME280;31429;42.674;23.350;2023-11-18T02:28:37;94097.75;;;5.80;100.00
23164;BME280;31429;42.674;23.350;2023-11-18T02:29:40;94093.03;;;5.98;100.00
23164;BME280;31429;42.674;23.350;2023-11-18T02:30:42;94092.34;;;5.93;100.00
23164;BME280;31429;42.674;23.350;2023-11-18T02:31:44;94090.88;;;5.84;100.00
23164;BME280;31429;42.674;23.350;2023-11-18T02:32:53;94091.00;;;5.79;100.00
23164;BME280;31429;42.674;23.350;2023-11-18T02:34:00;94096.50;;;5.95;100.00
23164;BME280;31429;42.674;23.350;2023-11-18T02:35:09;94088.22;;;5.89;100.00
23164;BME280;31429;42.674;23.350;2023-11-18T02:36:13;94082.16;;;5.65;100.00
23164;BME280;31429;42.674;23.350;2023-11-18T02:37:19;94083.47;;;5.78;100.00
23164;BME280;31429;42.674;23.350;2023-11-18T02:38:23;94081.78;;;5.49;100.00
23164;BME280;31429;42.674;23.350;2023-11-18T02:39:31;94088.06;;;5.65;100.00
23164;BME280;31429;42.674;23.350;2023-11-18T02:40:36;94087.88;;;5.71;100.00
23164;BME280;31429;42.674;23.350;2023-11-18T02:41:39;94082.78;;;5.73;100.00
23164;BME280;31429;42.674;23.350;2023-11-18T02:42:41;94096.81;;;5.83;100.00
23164;BME280;31429;42.674;23.350;2023-11-18T02:43:44;94100.31;;;5.79;100.00
23164;BME280;31429;42.674;23.350;2023-11-18T02:44:45;94101.06;;;5.55;100.00
23164;BME280;31429;42.674;23.350;2023-11-18T02:45:49;94107.28;;;5.45;100.00
23164;BME280;31429;42.674;23.350;2023-11-18T02:46:51;94097.69;;;5.54;100.00
23164;BME280;31429;42.674;23.350;2023-11-18T02:47:52;94103.53;;;5.56;100.00
23164;BME280;31429;42.674;23.350;2023-11-18T02:48:57;94091.94;;;5.77;100.00
23164;BME280;31429;42.674;23.350;2023-11-18T02:49:58;94101.56;;;5.66;100.00
23164;BME280;31429;42.674;23.350;2023-11-18T02:51:05;94101.03;;;5.27;100.00
23164;BME280;31429;42.674;23.350;2023-11-18T02:52:08;94107.72;;;5.28;100.00
23164;BME280;31429;42.674;23.350;2023-11-18T02:53:10;94106.22;;;5.52;100.00
23164;BME280;31429;42.674;23.350;2023-11-18T02:54:11;94123.94;;;5.53;100.00
23164;BME280;31429;42.674;23.350;2023-11-18T02:55:11;94111.97;;;5.57;100.00
23164;BME280;31429;42.674;23.350;2023-11-18T02:56:12;94114.50;;;5.57;100.00
23164;BME280;31429;42.674;23.350;2023-11-18T02:57:14;94109.59;;;5.52;100.00
23164;BME280;31429;42.674;23.350;2023-11-18T02:58:15;94115.66;;;5.47;100.00
23164;BME280;31429;42.674;23.350;2023-11-18T02:59:17;94103.56;;;5.26;100.00
23164;BME280;31429;42.674;23.350;2023-11-18T03:00:19;94114.97;;;5.42;100.00
23164;BME280;31429;42.674;23.350;2023-11-18T03:01:22;94116.53;;;5.46;100.00
23164;BME280;31429;42.674;23.350;2023-11-18T03:02:23;94114.91;;;5.43;100.00
23164;BME280;31429;42.674;23.350;2023-11-18T03:03:24;94112.78;;;5.30;100.00
23164;BME280;31429;42.674;23.350;2023-11-18T03:04:24;94124.34;;;5.38;100.00
23164;BME280;31429;42.674;23.350;2023-11-18T03:05:25;94134.56;;;5.35;100.00
23164;BME280;31429;42.674;23.350;2023-11-18T03:06:26;94127.47;;;5.17;100.00
23164;BME280;31429;42.674;23.350;2023-11-18T03:07:27;94141.03;;;5.16;100.00
23164;BME280;31429;42.674;23.350;2023-11-18T03:08:28;94150.16;;;5.21;100.00
23164;BME280;31429;42.674;23.350;2023-11-18T03:09:30;94135.91;;;5.17;100.00
23164;BME280;31429;42.674;23.350;2023-11-18T03:10:35;94143.28;;;5.25;100.00
23164;BME280;31429;42.674;23.350;2023-11-18T03:11:36;94140.94;;;5.19;100.00
23164;BME280;31429;42.674;23.350;2023-11-18T03:12:38;94132.19;;;5.31;100.00
23164;BME280;31429;42.674;23.350;2023-11-18T03:13:39;94140.72;;;5.27;100.00
23164;BME280;31429;42.674;23.350;2023-11-18T03:14:39;94137.53;;;5.20;100.00
23164;BME280;31429;42.674;23.350;2023-11-18T03:15:40;94142.63;;;5.18;100.00
23164;BME280;31429;42.674;23.350;2023-11-18T03:16:41;94125.69;;;5.20;100.00
23164;BME280;31429;42.674;23.350;2023-11-18T03:17:43;94147.47;;;5.28;100.00
23164;BME280;31429;42.674;23.350;2023-11-18T03:18:44;94150.09;;;5.23;100.00
23164;BME280;31429;42.674;23.350;2023-11-18T03:19:45;94160.56;;;5.11;100.00
23164;BME280;31429;42.674;23.350;2023-11-18T03:20:46;94153.63;;;5.17;100.00
23164;BME280;31429;42.674;23.350;2023-11-18T03:21:50;94164.78;;;5.12;100.00
23164;BME280;31429;42.674;23.350;2023-11-18T03:22:51;94169.84;;;5.12;100.00
23164;BME280;31429;42.674;23.350;2023-11-18T03:23:52;94172.59;;;5.03;100.00
23164;BME280;31429;42.674;23.350;2023-11-18T03:24:53;94169.56;;;4.90;100.00
23164;BME280;31429;42.674;23.350;2023-11-18T03:25:54;94179.34;;;5.04;100.00
23164;BME280;31429;42.674;23.350;2023-11-18T03:26:55;94181.53;;;4.85;100.00
23164;BME280;31429;42.674;23.350;2023-11-18T03:27:57;94177.94;;;4.92;100.00
23164;BME280;31429;42.674;23.350;2023-11-18T03:28:58;94174.47;;;4.96;100.00
23164;BME280;31429;42.674;23.350;2023-11-18T03:29:59;94177.66;;;5.04;100.00
23164;BME280;31429;42.674;23.350;2023-11-18T03:31:00;94179.41;;;5.01;100.00
23164;BME280;31429;42.674;23.350;2023-11-18T03:32:00;94179.03;;;5.16;100.00
23164;BME280;31429;42.674;23.350;2023-11-18T03:33:01;94175.25;;;5.31;100.00
23164;BME280;31429;42.674;23.350;2023-11-18T03:34:02;94173.97;;;5.14;100.00
23164;BME280;31429;42.674;23.350;2023-11-18T03:35:03;94179.88;;;4.83;100.00
23164;BME280;31429;42.674;23.350;2023-11-18T03:36:08;94170.72;;;4.79;100.00
23164;BME280;31429;42.674;23.350;2023-11-18T03:37:09;94177.81;;;4.97;100.00
23164;BME280;31429;42.674;23.350;2023-11-18T03:38:09;94164.56;;;5.19;100.00
23164;BME280;31429;42.674;23.350;2023-11-18T03:39:10;94175.03;;;5.07;100.00
23164;BME280;31429;42.674;23.350;2023-11-18T03:40:12;94168.06;;;5.15;100.00
23164;BME280;31429;42.674;23.350;2023-11-18T03:41:13;94167.66;;;4.98;100.00
23164;BME280;31429;42.674;23.350;2023-11-18T03:42:13;94191.31;;;4.99;100.00
23164;BME280;31429;42.674;23.350;2023-11-18T03:43:17;94169.50;;;5.24;100.00
23164;BME280;31429;42.674;23.350;2023-11-18T03:44:18;94187.56;;;5.12;100.00
23164;BME280;31429;42.674;23.350;2023-11-18T03:45:19;94176.84;;;5.02;100.00
23164;BME280;31429;42.674;23.350;2023-11-18T03:46:19;94178.28;;;5.12;100.00
23164;BME280;31429;42.674;23.350;2023-11-18T03:47:20;94183.00;;;4.92;100.00
23164;BME280;31429;42.674;23.350;2023-11-18T03:48:24;94191.88;;;5.08;100.00
23164;BME280;31429;42.674;23.350;2023-11-18T03:49:25;94188.88;;;4.94;100.00
23164;BME280;31429;42.674;23.350;2023-11-18T03:50:26;94199.00;;;4.94;100.00
23164;BME280;31429;42.674;23.350;2023-11-18T03:51:27;94194.31;;;5.13;100.00
23164;BME280;31429;42.674;23.350;2023-11-18T03:52:27;94206.28;;;5.06;100.00
23164;BME280;31429;42.674;23.350;2023-11-18T03:53:29;94202.25;;;4.65;100.00
23164;BME280;31429;42.674;23.350;2023-11-18T03:54:31;94189.81;;;4.90;100.00
23164;BME280;31429;42.674;23.350;2023-11-18T03:55:31;94194.00;;;4.91;100.00
23164;BME280;31429;42.674;23.350;2023-11-18T03:56:32;94198.16;;;4.94;100.00
23164;BME280;31429;42.674;23.350;2023-11-18T03:57:33;94190.19;;;4.77;100.00
23164;BME280;31429;42.674;23.350;2023-11-18T03:58:35;94180.34;;;4.97;100.00
23164;BME280;31429;42.674;23.350;2023-11-18T03:59:38;94198.84;;;5.00;100.00
23164;BME280;31429;42.674;23.350;2023-11-18T04:00:39;94212.91;;;5.12;100.00
23164;BME280;31429;42.674;23.350;2023-11-18T04:01:40;94195.63;;;5.26;100.00
23164;BME280;31429;42.674;23.350;2023-11-18T04:02:41;94204.81;;;4.98;100.00
23164;BME280;31429;42.674;23.350;2023-11-18T04:03:41;94194.63;;;5.01;100.00
23164;BME280;31429;42.674;23.350;2023-11-18T04:04:42;94206.00;;;4.85;100.00
23164;BME280;31429;42.674;23.350;2023-11-18T04:05:44;94197.03;;;4.72;100.00
23164;BME280;31429;42.674;23.350;2023-11-18T04:06:44;94198.13;;;4.95;100.00
23164;BME280;31429;42.674;23.350;2023-11-18T04:07:47;94198.84;;;4.68;100.00
23164;BME280;31429;42.674;23.350;2023-11-18T04:08:48;94201.03;;;4.82;100.00
23164;BME280;31429;42.674;23.350;2023-11-18T04:09:48;94207.91;;;4.77;100.00
23164;BME280;31429;42.674;23.350;2023-11-18T04:10:49;94198.59;;;4.77;100.00
23164;BME280;31429;42.674;23.350;2023-11-18T04:11:50;94198.09;;;4.63;100.00
23164;BME280;31429;42.674;23.350;2023-11-18T04:12:50;94197.31;;;4.95;100.00
23164;BME280;31429;42.674;23.350;2023-11-18T04:13:53;94205.50;;;4.71;100.00
23164;BME280;31429;42.674;23.350;2023-11-18T04:14:53;94197.66;;;4.81;100.00
23164;BME280;31429;42.674;23.350;2023-11-18T04:15:54;94203.78;;;4.73;100.00
23164;BME280;31429;42.674;23.350;2023-11-18T04:16:55;94200.53;;;4.68;100.00
23164;BME280;31429;42.674;23.350;2023-11-18T04:17:57;94199.19;;;4.87;100.00
23164;BME280;31429;42.674;23.350;2023-11-18T04:18:58;94206.50;;;4.65;100.00
23164;BME280;31429;42.674;23.350;2023-11-18T04:19:59;94207.63;;;4.52;100.00
23164;BME280;31429;42.674;23.350;2023-11-18T04:21:00;94211.41;;;4.36;100.00
23164;BME280;31429;42.674;23.350;2023-11-18T04:22:00;94219.25;;;4.60;100.00
23164;BME280;31429;42.674;23.350;2023-11-18T04:23:01;94214.66;;;4.76;100.00
23164;BME280;31429;42.674;23.350;2023-11-18T04:24:02;94217.34;;;4.69;100.00
23164;BME280;31429;42.674;23.350;2023-11-18T04:25:03;94211.63;;;4.62;100.00
23164;BME280;31429;42.674;23.350;2023-11-18T04:26:05;94196.03;;;4.43;100.00
23164;BME280;31429;42.674;23.350;2023-11-18T04:27:06;94202.97;;;4.35;100.00
23164;BME280;31429;42.674;23.350;2023-11-18T04:28:06;94206.31;;;4.73;100.00
23164;BME280;31429;42.674;23.350;2023-11-18T04:29:08;94204.19;;;4.56;100.00
23164;BME280;31429;42.674;23.350;2023-11-18T04:30:10;94206.09;;;4.46;100.00
23164;BME280;31429;42.674;23.350;2023-11-18T04:31:10;94207.44;;;4.61;100.00
23164;BME280;31429;42.674;23.350;2023-11-18T04:32:11;94204.78;;;4.65;100.00
23164;BME280;31429;42.674;23.350;2023-11-18T04:33:14;94208.13;;;4.68;100.00
23164;BME280;31429;42.674;23.350;2023-11-18T04:34:15;94219.31;;;4.57;100.00
23164;BME280;31429;42.674;23.350;2023-11-18T04:35:17;94196.47;;;4.60;100.00
23164;BME280;31429;42.674;23.350;2023-11-18T04:36:17;94217.63;;;4.58;100.00
23164;BME280;31429;42.674;23.350;2023-11-18T04:37:19;94217.59;;;4.59;100.00
23164;BME280;31429;42.674;23.350;2023-11-18T04:38:20;94217.59;;;4.59;100.00
23164;BME280;31429;42.674;23.350;2023-11-18T04:39:21;94209.84;;;4.65;100.00
23164;BME280;31429;42.674;23.350;2023-11-18T04:40:22;94227.66;;;4.62;100.00
23164;BME280;31429;42.674;23.350;2023-11-18T04:41:23;94230.22;;;4.61;100.00
23164;BME280;31429;42.674;23.350;2023-11-18T04:42:25;94209.53;;;4.78;100.00
23164;BME280;31429;42.674;23.350;2023-11-18T04:43:25;94218.53;;;4.89;100.00
23164;BME280;31429;42.674;23.350;2023-11-18T04:44:27;94221.91;;;4.90;100.00
23164;BME280;31429;42.674;23.350;2023-11-18T04:45:28;94216.56;;;4.67;100.00
23164;BME280;31429;42.674;23.350;2023-11-18T04:46:30;94226.84;;;4.60;100.00
23164;BME280;31429;42.674;23.350;2023-11-18T04:47:31;94226.88;;;4.59;100.00
23164;BME280;31429;42.674;23.350;2023-11-18T04:48:32;94216.78;;;4.57;100.00
23164;BME280;31429;42.674;23.350;2023-11-18T04:49:33;94220.28;;;4.53;100.00
23164;BME280;31429;42.674;23.350;2023-11-18T04:50:34;94231.88;;;4.62;100.00
23164;BME280;31429;42.674;23.350;2023-11-18T04:51:34;94221.19;;;4.49;100.00
23164;BME280;31429;42.674;23.350;2023-11-18T04:52:35;94223.16;;;4.38;100.00
23164;BME280;31429;42.674;23.350;2023-11-18T04:53:36;94223.59;;;4.55;100.00
23164;BME280;31429;42.674;23.350;2023-11-18T04:54:38;94223.22;;;4.35;100.00
23164;BME280;31429;42.674;23.350;2023-11-18T04:55:38;94220.09;;;4.61;100.00
23164;BME280;31429;42.674;23.350;2023-11-18T04:56:39;94221.00;;;4.57;100.00
23164;BME280;31429;42.674;23.350;2023-11-18T04:57:40;94223.09;;;4.77;100.00
23164;BME280;31429;42.674;23.350;2023-11-18T04:58:40;94222.50;;;4.30;100.00
23164;BME280;31429;42.674;23.350;2023-11-18T04:59:43;94219.25;;;4.60;100.00
23164;BME280;31429;42.674;23.350;2023-11-18T05:00:44;94226.50;;;4.74;100.00
23164;BME280;31429;42.674;23.350;2023-11-18T05:01:45;94214.75;;;4.72;100.00
23164;BME280;31429;42.674;23.350;2023-11-18T05:02:46;94215.66;;;4.71;100.00
23164;BME280;31429;42.674;23.350;2023-11-18T05:03:48;94221.44;;;4.74;100.00
23164;BME280;31429;42.674;23.350;2023-11-18T05:04:48;94221.63;;;4.68;100.00
23164;BME280;31429;42.674;23.350;2023-11-18T05:05:49;94226.97;;;4.54;100.00
23164;BME280;31429;42.674;23.350;2023-11-18T05:06:50;94222.94;;;4.47;100.00
23164;BME280;31429;42.674;23.350;2023-11-18T05:07:52;94223.34;;;4.29;100.00
23164;BME280;31429;42.674;23.350;2023-11-18T05:08:52;94237.59;;;4.33;100.00
23164;BME280;31429;42.674;23.350;2023-11-18T05:09:53;94215.16;;;4.18;100.00
23164;BME280;31429;42.674;23.350;2023-11-18T05:10:54;94208.22;;;4.26;100.00
23164;BME280;31429;42.674;23.350;2023-11-18T05:11:55;94211.25;;;4.42;100.00
23164;BME280;31429;42.674;23.350;2023-11-18T05:12:57;94207.63;;;4.17;100.00
23164;BME280;31429;42.674;23.350;2023-11-18T05:13:58;94212.56;;;4.21;100.00
23164;BME280;31429;42.674;23.350;2023-11-18T05:15:01;94219.25;;;4.24;100.00
23164;BME280;31429;42.674;23.350;2023-11-18T05:16:03;94217.38;;;4.33;100.00
23164;BME280;31429;42.674;23.350;2023-11-18T05:17:04;94218.28;;;4.29;100.00
23164;BME280;31429;42.674;23.350;2023-11-18T05:18:05;94209.97;;;4.95;100.00
23164;BME280;31429;42.674;23.350;2023-11-18T05:19:08;94203.47;;;5.17;100.00
23164;BME280;31429;42.674;23.350;2023-11-18T05:20:09;94202.25;;;4.65;100.00
23164;BME280;31429;42.674;23.350;2023-11-18T05:21:11;94214.09;;;4.65;100.00
23164;BME280;31429;42.674;23.350;2023-11-18T05:22:12;94214.31;;;4.56;100.00